sensor_id;sensor_type;location;lat;lon;timestamp;P1;durP1;ratioP1;P2;durP2;ratioP2
48199;SDS011;33990;44.602;10.976;2023-05-07T00:00:45;6.18;;;5.57;;
48199;SDS011;33990;44.602;10.976;2023-05-07T00:03:12;8.15;;;6.50;;
48199;SDS011;33990;44.602;10.976;2023-05-07T00:05:40;6.38;;;5.70;;
48199;SDS011;33990;44.602;10.976;2023-05-07T00:08:08;7.15;;;5.70;;
48199;SDS011;33990;44.602;10.976;2023-05-07T00:10:35;7.57;;;6.35;;
48199;SDS011;33990;44.602;10.976;2023-05-07T00:13:02;7.45;;;6.30;;
48199;SDS011;33990;44.602;10.976;2023-05-07T00:15:30;6.43;;;4.85;;
48199;SDS011;33990;44.602;10.976;2023-05-07T00:17:57;7.05;;;5.75;;
48199;SDS011;33990;44.602;10.976;2023-05-07T00:20:26;7.65;;;6.25;;
48199;SDS011;33990;44.602;10.976;2023-05-07T00:22:53;6.40;;;5.78;;
48199;SDS011;33990;44.602;10.976;2023-05-07T00:25:21;6.88;;;5.32;;
48199;SDS011;33990;44.602;10.976;2023-05-07T00:27:49;7.93;;;5.90;;
48199;SDS011;33990;44.602;10.976;2023-05-07T00:30:16;8.82;;;6.10;;
48199;SDS011;33990;44.602;10.976;2023-05-07T00:32:43;6.43;;;5.82;;
48199;SDS011;33990;44.602;10.976;2023-05-07T00:35:12;6.22;;;5.63;;
48199;SDS011;33990;44.602;10.976;2023-05-07T00:37:39;7.60;;;5.97;;
48199;SDS011;33990;44.602;10.976;2023-05-07T00:40:07;7.43;;;6.07;;
48199;SDS011;33990;44.602;10.976;2023-05-07T00:42:35;6.85;;;6.15;;
48199;SDS011;33990;44.602;10.976;2023-05-07T00:45:03;7.90;;;6.20;;
48199;SDS011;33990;44.602;10.976;2023-05-07T00:47:31;9.13;;;6.80;;
48199;SDS011;33990;44.602;10.976;2023-05-07T00:49:58;6.88;;;6.18;;
48199;SDS011;33990;44.602;10.976;2023-05-07T00:52:26;10.98;;;6.35;;
48199;SDS011;33990;44.602;10.976;2023-05-07T00:54:54;9.20;;;6.50;;
48199;SDS011;33990;44.602;10.976;2023-05-07T00:57:22;6.22;;;5.63;;
48199;SDS011;33990;44.602;10.976;2023-05-07T00:59:51;6.35;;;5.75;;
48199;SDS011;33990;44.602;10.976;2023-05-07T01:02:18;9.32;;;6.10;;
48199;SDS011;33990;44.602;10.976;2023-05-07T01:04:46;7.00;;;6.30;;
48199;SDS011;33990;44.602;10.976;2023-05-07T01:07:14;7.38;;;6.05;;
48199;SDS011;33990;44.602;10.976;2023-05-07T01:09:42;6.95;;;4.95;;
48199;SDS011;33990;44.602;10.976;2023-05-07T01:12:09;7.25;;;6.10;;
48199;SDS011;33990;44.602;10.976;2023-05-07T01:14:37;6.35;;;5.70;;
48199;SDS011;33990;44.602;10.976;2023-05-07T01:17:05;7.28;;;6.55;;
48199;SDS011;33990;44.602;10.976;2023-05-07T01:19:33;9.55;;;6.25;;
48199;SDS011;33990;44.602;10.976;2023-05-07T01:22:03;7.68;;;6.88;;
48199;SDS011;33990;44.602;10.976;2023-05-07T01:24:41;7.82;;;6.78;;
48199;SDS011;33990;44.602;10.976;2023-05-07T01:27:09;6.88;;;6.20;;
48199;SDS011;33990;44.602;10.976;2023-05-07T01:29:37;6.90;;;6.20;;
48199;SDS011;33990;44.602;10.976;2023-05-07T01:32:04;7.07;;;6.32;;
48199;SDS011;33990;44.602;10.976;2023-05-07T01:34:32;8.48;;;6.47;;
48199;SDS011;33990;44.602;10.976;2023-05-07T01:37:02;9.27;;;6.47;;
48199;SDS011;33990;44.602;10.976;2023-05-07T01:39:30;7.53;;;5.85;;
48199;SDS011;33990;44.602;10.976;2023-05-07T01:41:58;9.20;;;7.07;;
48199;SDS011;33990;44.602;10.976;2023-05-07T01:44:27;8.40;;;6.75;;
48199;SDS011;33990;44.602;10.976;2023-05-07T01:46:55;8.45;;;6.60;;
48199;SDS011;33990;44.602;10.976;2023-05-07T01:49:23;8.43;;;6.38;;
48199;SDS011;33990;44.602;10.976;2023-05-07T01:51:51;11.80;;;7.30;;
48199;SDS011;33990;44.602;10.976;2023-05-07T01:54:19;9.20;;;6.72;;
48199;SDS011;33990;44.602;10.976;2023-05-07T01:56:52;10.02;;;7.75;;
48199;SDS011;33990;44.602;10.976;2023-05-07T01:59:19;8.85;;;6.88;;
48199;SDS011;33990;44.602;10.976;2023-05-07T02:01:47;7.57;;;6.47;;
48199;SDS011;33990;44.602;10.976;2023-05-07T02:04:14;8.30;;;7.50;;
48199;SDS011;33990;44.602;10.976;2023-05-07T02:06:42;7.60;;;6.07;;
48199;SDS011;33990;44.602;10.976;2023-05-07T02:09:11;6.93;;;6.03;;
48199;SDS011;33990;44.602;10.976;2023-05-07T02:11:41;7.22;;;6.35;;
48199;SDS011;33990;44.602;10.976;2023-05-07T02:14:08;8.25;;;6.13;;
48199;SDS011;33990;44.602;10.976;2023-05-07T02:16:36;9.40;;;6.43;;
48199;SDS011;33990;44.602;10.976;2023-05-07T02:19:03;7.13;;;6.25;;
48199;SDS011;33990;44.602;10.976;2023-05-07T02:21:31;9.43;;;6.43;;
48199;SDS011;33990;44.602;10.976;2023-05-07T02:23:58;7.63;;;6.88;;
48199;SDS011;33990;44.602;10.976;2023-05-07T02:26:26;7.57;;;6.65;;
48199;SDS011;33990;44.602;10.976;2023-05-07T02:28:54;7.43;;;6.20;;
48199;SDS011;33990;44.602;10.976;2023-05-07T02:31:21;7.43;;;5.95;;
48199;SDS011;33990;44.602;10.976;2023-05-07T02:33:49;7.65;;;6.10;;
48199;SDS011;33990;44.602;10.976;2023-05-07T02:36:16;6.93;;;6.20;;
48199;SDS011;33990;44.602;10.976;2023-05-07T02:38:50;9.68;;;6.80;;
48199;SDS011;33990;44.602;10.976;2023-05-07T02:41:17;7.10;;;6.13;;
48199;SDS011;33990;44.602;10.976;2023-05-07T02:43:45;6.90;;;6.10;;
48199;SDS011;33990;44.602;10.976;2023-05-07T02:46:12;8.02;;;6.03;;
48199;SDS011;33990;44.602;10.976;2023-05-07T02:48:45;7.53;;;6.18;;
48199;SDS011;33990;44.602;10.976;2023-05-07T02:51:13;6.75;;;5.70;;
48199;SDS011;33990;44.602;10.976;2023-05-07T02:53:42;9.65;;;6.13;;
48199;SDS011;33990;44.602;10.976;2023-05-07T02:56:09;6.70;;;5.90;;
48199;SDS011;33990;44.602;10.976;2023-05-07T02:58:37;7.05;;;5.90;;
48199;SDS011;33990;44.602;10.976;2023-05-07T03:01:06;6.20;;;5.40;;
48199;SDS011;33990;44.602;10.976;2023-05-07T03:03:41;6.97;;;5.70;;
48199;SDS011;33990;44.602;10.976;2023-05-07T03:06:09;7.13;;;6.43;;
48199;SDS011;33990;44.602;10.976;2023-05-07T03:08:36;6.07;;;5.47;;
48199;SDS011;33990;44.602;10.976;2023-05-07T03:11:03;8.25;;;5.35;;
48199;SDS011;33990;44.602;10.976;2023-05-07T03:13:31;7.50;;;6.10;;
48199;SDS011;33990;44.602;10.976;2023-05-07T03:15:58;6.82;;;5.85;;
48199;SDS011;33990;44.602;10.976;2023-05-07T03:18:26;6.70;;;5.90;;
48199;SDS011;33990;44.602;10.976;2023-05-07T03:20:53;7.18;;;6.13;;
48199;SDS011;33990;44.602;10.976;2023-05-07T03:23:21;8.07;;;6.60;;
48199;SDS011;33990;44.602;10.976;2023-05-07T03:25:50;7.43;;;6.20;;
48199;SDS011;33990;44.602;10.976;2023-05-07T03:28:18;7.10;;;6.40;;
48199;SDS011;33990;44.602;10.976;2023-05-07T03:30:54;9.32;;;6.13;;
48199;SDS011;33990;44.602;10.976;2023-05-07T03:33:22;7.03;;;5.82;;
48199;SDS011;33990;44.602;10.976;2023-05-07T03:35:49;10.38;;;7.10;;
48199;SDS011;33990;44.602;10.976;2023-05-07T03:38:21;9.07;;;6.13;;
48199;SDS011;33990;44.602;10.976;2023-05-07T03:40:49;7.85;;;6.55;;
48199;SDS011;33990;44.602;10.976;2023-05-07T03:43:17;8.98;;;7.05;;
48199;SDS011;33990;44.602;10.976;2023-05-07T03:45:49;6.90;;;6.18;;
48199;SDS011;33990;44.602;10.976;2023-05-07T03:48:24;6.68;;;5.80;;
48199;SDS011;33990;44.602;10.976;2023-05-07T03:50:55;9.15;;;6.50;;
48199;SDS011;33990;44.602;10.976;2023-05-07T03:55:54;7.47;;;5.80;;
48199;SDS011;33990;44.602;10.976;2023-05-07T03:58:22;8.10;;;6.88;;
48199;SDS011;33990;44.602;10.976;2023-05-07T04:00:50;8.77;;;6.65;;
48199;SDS011;33990;44.602;10.976;2023-05-07T04:03:23;10.43;;;7.55;;
48199;SDS011;33990;44.602;10.976;2023-05-07T04:05:52;7.95;;;6.20;;
48199;SDS011;33990;44.602;10.976;2023-05-07T04:08:20;6.80;;;6.10;;
48199;SDS011;33990;44.602;10.976;2023-05-07T04:10:55;9.90;;;6.65;;
48199;SDS011;33990;44.602;10.976;2023-05-07T04:13:30;7.53;;;6.82;;
48199;SDS011;33990;44.602;10.976;2023-05-07T04:16:01;7.28;;;6.55;;
48199;SDS011;33990;44.602;10.976;2023-05-07T04:18:29;8.18;;;6.82;;
48199;SDS011;33990;44.602;10.976;2023-05-07T04:20:57;9.68;;;6.25;;
48199;SDS011;33990;44.602;10.976;2023-05-07T04:23:24;9.07;;;6.85;;
48199;SDS011;33990;44.602;10.976;2023-05-07T04:25:52;8.95;;;6.80;;
48199;SDS011;33990;44.602;10.976;2023-05-07T04:28:30;8.77;;;7.55;;
48199;SDS011;33990;44.602;10.976;2023-05-07T04:30:57;7.82;;;6.68;;
48199;SDS011;33990;44.602;10.976;2023-05-07T04:33:25;7.68;;;6.00;;
48199;SDS011;33990;44.602;10.976;2023-05-07T04:35:56;8.70;;;6.78;;
48199;SDS011;33990;44.602;10.976;2023-05-07T04:38:24;6.88;;;6.13;;
48199;SDS011;33990;44.602;10.976;2023-05-07T04:40:53;7.90;;;6.90;;
48199;SDS011;33990;44.602;10.976;2023-05-07T04:43:24;7.40;;;6.57;;
48199;SDS011;33990;44.602;10.976;2023-05-07T04:45:51;8.70;;;6.85;;
48199;SDS011;33990;44.602;10.976;2023-05-07T04:48:21;8.68;;;7.07;;
48199;SDS011;33990;44.602;10.976;2023-05-07T04:50:50;6.63;;;5.93;;
48199;SDS011;33990;44.602;10.976;2023-05-07T04:53:19;6.88;;;6.22;;
48199;SDS011;33990;44.602;10.976;2023-05-07T04:55:47;7.25;;;6.55;;
48199;SDS011;33990;44.602;10.976;2023-05-07T04:58:15;7.53;;;6.57;;
48199;SDS011;33990;44.602;10.976;2023-05-07T05:00:44;7.25;;;6.53;;
48199;SDS011;33990;44.602;10.976;2023-05-07T05:03:12;7.07;;;6.38;;
48199;SDS011;33990;44.602;10.976;2023-05-07T05:05:40;7.50;;;6.72;;
48199;SDS011;33990;44.602;10.976;2023-05-07T05:08:07;6.85;;;6.15;;
48199;SDS011;33990;44.602;10.976;2023-05-07T05:10:37;6.50;;;5.85;;
48199;SDS011;33990;44.602;10.976;2023-05-07T05:13:06;7.10;;;6.38;;
48199;SDS011;33990;44.602;10.976;2023-05-07T05:15:34;7.43;;;6.57;;
48199;SDS011;33990;44.602;10.976;2023-05-07T05:18:02;7.22;;;6.53;;
48199;SDS011;33990;44.602;10.976;2023-05-07T05:20:30;6.97;;;6.28;;
48199;SDS011;33990;44.602;10.976;2023-05-07T05:22:58;7.30;;;6.32;;
48199;SDS011;33990;44.602;10.976;2023-05-07T05:25:25;7.43;;;6.43;;
48199;SDS011;33990;44.602;10.976;2023-05-07T05:27:53;7.45;;;6.65;;
48199;SDS011;33990;44.602;10.976;2023-05-07T05:30:20;7.05;;;5.72;;
48199;SDS011;33990;44.602;10.976;2023-05-07T05:32:49;7.30;;;6.45;;
48199;SDS011;33990;44.602;10.976;2023-05-07T05:35:16;7.68;;;6.40;;
48199;SDS011;33990;44.602;10.976;2023-05-07T05:37:44;6.78;;;5.65;;
48199;SDS011;33990;44.602;10.976;2023-05-07T05:40:11;7.03;;;6.43;;
48199;SDS011;33990;44.602;10.976;2023-05-07T05:42:39;6.88;;;5.95;;
48199;SDS011;33990;44.602;10.976;2023-05-07T05:45:09;6.00;;;5.40;;
48199;SDS011;33990;44.602;10.976;2023-05-07T05:47:37;6.72;;;5.95;;
48199;SDS011;33990;44.602;10.976;2023-05-07T05:50:06;7.03;;;5.75;;
48199;SDS011;33990;44.602;10.976;2023-05-07T05:52:35;6.88;;;6.07;;
48199;SDS011;33990;44.602;10.976;2023-05-07T05:55:04;6.20;;;5.60;;
48199;SDS011;33990;44.602;10.976;2023-05-07T05:57:34;6.35;;;5.72;;
48199;SDS011;33990;44.602;10.976;2023-05-07T06:00:02;5.85;;;5.25;;
48199;SDS011;33990;44.602;10.976;2023-05-07T06:02:33;9.18;;;6.05;;
48199;SDS011;33990;44.602;10.976;2023-05-07T06:05:00;7.05;;;6.35;;
48199;SDS011;33990;44.602;10.976;2023-05-07T06:07:28;5.88;;;4.82;;
48199;SDS011;33990;44.602;10.976;2023-05-07T06:09:55;5.88;;;5.28;;
48199;SDS011;33990;44.602;10.976;2023-05-07T06:12:22;7.97;;;5.53;;
48199;SDS011;33990;44.602;10.976;2023-05-07T06:14:50;5.80;;;5.30;;
48199;SDS011;33990;44.602;10.976;2023-05-07T06:17:17;7.60;;;5.20;;
48199;SDS011;33990;44.602;10.976;2023-05-07T06:19:49;7.13;;;5.30;;
48199;SDS011;33990;44.602;10.976;2023-05-07T06:22:18;6.55;;;5.45;;
48199;SDS011;33990;44.602;10.976;2023-05-07T06:24:46;7.53;;;5.68;;
48199;SDS011;33990;44.602;10.976;2023-05-07T06:27:13;9.00;;;5.93;;
48199;SDS011;33990;44.602;10.976;2023-05-07T06:29:41;7.55;;;5.63;;
48199;SDS011;33990;44.602;10.976;2023-05-07T06:32:13;7.45;;;5.28;;
48199;SDS011;33990;44.602;10.976;2023-05-07T06:34:43;7.15;;;5.03;;
48199;SDS011;33990;44.602;10.976;2023-05-07T06:37:11;7.50;;;5.03;;
48199;SDS011;33990;44.602;10.976;2023-05-07T06:39:59;7.25;;;6.18;;
48199;SDS011;33990;44.602;10.976;2023-05-07T06:42:28;7.65;;;5.07;;
48199;SDS011;33990;44.602;10.976;2023-05-07T06:44:59;7.82;;;5.47;;
48199;SDS011;33990;44.602;10.976;2023-05-07T06:47:29;7.60;;;5.13;;
48199;SDS011;33990;44.602;10.976;2023-05-07T06:49:57;5.22;;;4.72;;
48199;SDS011;33990;44.602;10.976;2023-05-07T06:52:28;7.45;;;5.30;;
48199;SDS011;33990;44.602;10.976;2023-05-07T06:54:55;6.18;;;5.18;;
48199;SDS011;33990;44.602;10.976;2023-05-07T06:57:25;10.50;;;5.25;;
48199;SDS011;33990;44.602;10.976;2023-05-07T06:59:52;6.55;;;5.38;;
48199;SDS011;33990;44.602;10.976;2023-05-07T07:02:20;4.93;;;4.43;;
48199;SDS011;33990;44.602;10.976;2023-05-07T07:04:49;7.10;;;4.75;;
48199;SDS011;33990;44.602;10.976;2023-05-07T07:07:16;5.43;;;4.82;;
48199;SDS011;33990;44.602;10.976;2023-05-07T07:09:46;7.15;;;5.55;;
48199;SDS011;33990;44.602;10.976;2023-05-07T07:12:16;5.68;;;4.90;;
48199;SDS011;33990;44.602;10.976;2023-05-07T07:14:44;5.82;;;5.22;;
48199;SDS011;33990;44.602;10.976;2023-05-07T07:17:12;7.22;;;4.95;;
48199;SDS011;33990;44.602;10.976;2023-05-07T07:19:39;5.97;;;4.53;;
48199;SDS011;33990;44.602;10.976;2023-05-07T07:22:07;5.05;;;4.57;;
48199;SDS011;33990;44.602;10.976;2023-05-07T07:24:35;6.03;;;5.07;;
48199;SDS011;33990;44.602;10.976;2023-05-07T07:27:05;8.55;;;5.03;;
48199;SDS011;33990;44.602;10.976;2023-05-07T07:29:33;7.20;;;4.97;;
48199;SDS011;33990;44.602;10.976;2023-05-07T07:32:01;6.40;;;5.38;;
48199;SDS011;33990;44.602;10.976;2023-05-07T07:34:30;6.00;;;5.20;;
48199;SDS011;33990;44.602;10.976;2023-05-07T07:36:57;6.47;;;4.93;;
48199;SDS011;33990;44.602;10.976;2023-05-07T07:39:25;5.57;;;4.82;;
48199;SDS011;33990;44.602;10.976;2023-05-07T07:41:55;5.20;;;4.63;;
48199;SDS011;33990;44.602;10.976;2023-05-07T07:44:24;8.35;;;5.28;;
48199;SDS011;33990;44.602;10.976;2023-05-07T07:46:58;5.72;;;5.10;;
48199;SDS011;33990;44.602;10.976;2023-05-07T07:49:26;5.53;;;4.15;;
48199;SDS011;33990;44.602;10.976;2023-05-07T07:51:55;7.35;;;4.60;;
48199;SDS011;33990;44.602;10.976;2023-05-07T07:54:23;5.85;;;4.80;;
48199;SDS011;33990;44.602;10.976;2023-05-07T07:56:51;5.30;;;4.47;;
48199;SDS011;33990;44.602;10.976;2023-05-07T07:59:19;7.30;;;5.60;;
48199;SDS011;33990;44.602;10.976;2023-05-07T08:01:48;5.95;;;5.20;;
48199;SDS011;33990;44.602;10.976;2023-05-07T08:04:21;5.20;;;4.70;;
48199;SDS011;33990;44.602;10.976;2023-05-07T08:06:48;5.20;;;4.20;;
48199;SDS011;33990;44.602;10.976;2023-05-07T08:09:16;5.35;;;4.85;;
48199;SDS011;33990;44.602;10.976;2023-05-07T08:11:46;7.03;;;4.53;;
48199;SDS011;33990;44.602;10.976;2023-05-07T08:14:13;5.55;;;4.88;;
48199;SDS011;33990;44.602;10.976;2023-05-07T08:16:45;5.82;;;4.53;;
48199;SDS011;33990;44.602;10.976;2023-05-07T08:19:13;5.13;;;4.57;;
48199;SDS011;33990;44.602;10.976;2023-05-07T08:21:43;7.03;;;4.88;;
48199;SDS011;33990;44.602;10.976;2023-05-07T08:24:11;6.53;;;4.95;;
48199;SDS011;33990;44.602;10.976;2023-05-07T08:26:39;5.10;;;4.38;;
48199;SDS011;33990;44.602;10.976;2023-05-07T08:29:08;6.38;;;4.35;;
48199;SDS011;33990;44.602;10.976;2023-05-07T08:31:36;5.28;;;4.20;;
48199;SDS011;33990;44.602;10.976;2023-05-07T08:34:05;6.15;;;4.93;;
48199;SDS011;33990;44.602;10.976;2023-05-07T08:36:38;6.60;;;5.10;;
48199;SDS011;33990;44.602;10.976;2023-05-07T08:39:06;5.32;;;4.35;;
48199;SDS011;33990;44.602;10.976;2023-05-07T08:41:34;5.25;;;4.35;;
48199;SDS011;33990;44.602;10.976;2023-05-07T08:44:02;5.65;;;4.70;;
48199;SDS011;33990;44.602;10.976;2023-05-07T08:46:31;5.22;;;3.72;;
48199;SDS011;33990;44.602;10.976;2023-05-07T08:48:59;6.43;;;4.82;;
48199;SDS011;33990;44.602;10.976;2023-05-07T08:51:27;5.50;;;4.63;;
48199;SDS011;33990;44.602;10.976;2023-05-07T08:53:55;4.95;;;4.32;;
48199;SDS011;33990;44.602;10.976;2023-05-07T08:56:29;5.80;;;4.53;;
48199;SDS011;33990;44.602;10.976;2023-05-07T08:58:57;6.80;;;4.60;;
48199;SDS011;33990;44.602;10.976;2023-05-07T09:01:27;6.03;;;3.90;;
48199;SDS011;33990;44.602;10.976;2023-05-07T09:03:55;5.85;;;4.47;;
48199;SDS011;33990;44.602;10.976;2023-05-07T09:06:24;5.40;;;3.72;;
48199;SDS011;33990;44.602;10.976;2023-05-07T09:08:54;6.97;;;4.05;;
48199;SDS011;33990;44.602;10.976;2023-05-07T09:11:25;5.93;;;3.83;;
48199;SDS011;33990;44.602;10.976;2023-05-07T09:13:55;6.25;;;4.40;;
48199;SDS011;33990;44.602;10.976;2023-05-07T09:16:25;5.57;;;4.97;;
48199;SDS011;33990;44.602;10.976;2023-05-07T09:18:54;4.90;;;4.40;;
48199;SDS011;33990;44.602;10.976;2023-05-07T09:21:22;6.07;;;4.63;;
48199;SDS011;33990;44.602;10.976;2023-05-07T09:23:54;6.05;;;4.70;;
48199;SDS011;33990;44.602;10.976;2023-05-07T09:26:29;9.10;;;4.75;;
48199;SDS011;33990;44.602;10.976;2023-05-07T09:28:58;5.15;;;4.63;;
48199;SDS011;33990;44.602;10.976;2023-05-07T09:31:25;6.70;;;4.55;;
48199;SDS011;33990;44.602;10.976;2023-05-07T09:33:54;6.47;;;4.22;;
48199;SDS011;33990;44.602;10.976;2023-05-07T09:36:25;5.55;;;4.65;;
48199;SDS011;33990;44.602;10.976;2023-05-07T09:38:54;5.40;;;4.57;;
48199;SDS011;33990;44.602;10.976;2023-05-07T09:41:22;8.35;;;6.18;;
48199;SDS011;33990;44.602;10.976;2023-05-07T09:44:00;7.38;;;5.53;;
48199;SDS011;33990;44.602;10.976;2023-05-07T09:46:36;7.43;;;5.55;;
48199;SDS011;33990;44.602;10.976;2023-05-07T09:49:21;6.18;;;5.13;;
48199;SDS011;33990;44.602;10.976;2023-05-07T09:51:59;8.40;;;5.25;;
48199;SDS011;33990;44.602;10.976;2023-05-07T09:54:30;9.98;;;6.38;;
48199;SDS011;33990;44.602;10.976;2023-05-07T09:56:59;10.90;;;5.90;;
48199;SDS011;33990;44.602;10.976;2023-05-07T09:59:30;7.55;;;5.10;;
48199;SDS011;33990;44.602;10.976;2023-05-07T10:02:03;8.38;;;5.07;;
48199;SDS011;33990;44.602;10.976;2023-05-07T10:04:35;8.05;;;5.75;;
48199;SDS011;33990;44.602;10.976;2023-05-07T10:07:04;7.25;;;6.40;;
48199;SDS011;33990;44.602;10.976;2023-05-07T10:09:33;8.23;;;5.88;;
48199;SDS011;33990;44.602;10.976;2023-05-07T10:12:08;7.13;;;5.75;;
48199;SDS011;33990;44.602;10.976;2023-05-07T10:14:36;9.93;;;5.97;;
48199;SDS011;33990;44.602;10.976;2023-05-07T10:17:05;8.98;;;5.20;;
48199;SDS011;33990;44.602;10.976;2023-05-07T10:19:33;7.22;;;5.20;;
48199;SDS011;33990;44.602;10.976;2023-05-07T10:22:05;9.48;;;5.15;;
48199;SDS011;33990;44.602;10.976;2023-05-07T10:24:39;6.38;;;5.65;;
48199;SDS011;33990;44.602;10.976;2023-05-07T10:27:12;8.20;;;5.70;;
48199;SDS011;33990;44.602;10.976;2023-05-07T10:35:26;8.82;;;5.38;;
48199;SDS011;33990;44.602;10.976;2023-05-07T10:38:02;6.03;;;5.00;;
48199;SDS011;33990;44.602;10.976;2023-05-07T10:40:39;7.20;;;4.85;;
48199;SDS011;33990;44.602;10.976;2023-05-07T10:43:08;6.60;;;5.88;;
48199;SDS011;33990;44.602;10.976;2023-05-07T10:52:11;5.82;;;5.22;;
48199;SDS011;33990;44.602;10.976;2023-05-07T10:58:26;7.00;;;4.93;;
48199;SDS011;33990;44.602;10.976;2023-05-07T11:01:11;7.03;;;4.65;;
48199;SDS011;33990;44.602;10.976;2023-05-07T11:15:38;9.30;;;5.10;;
48199;SDS011;33990;44.602;10.976;2023-05-07T11:18:15;5.43;;;3.88;;
48199;SDS011;33990;44.602;10.976;2023-05-07T11:26:15;7.75;;;4.90;;
48199;SDS011;33990;44.602;10.976;2023-05-07T11:28:43;6.45;;;4.63;;
48199;SDS011;33990;44.602;10.976;2023-05-07T11:31:11;6.35;;;4.20;;
48199;SDS011;33990;44.602;10.976;2023-05-07T11:33:40;7.63;;;4.15;;
48199;SDS011;33990;44.602;10.976;2023-05-07T11:38:46;4.65;;;3.88;;
48199;SDS011;33990;44.602;10.976;2023-05-07T11:41:13;8.10;;;4.57;;
48199;SDS011;33990;44.602;10.976;2023-05-07T11:43:53;5.80;;;4.22;;
48199;SDS011;33990;44.602;10.976;2023-05-07T11:46:24;7.57;;;4.18;;
48199;SDS011;33990;44.602;10.976;2023-05-07T11:48:52;5.82;;;3.97;;
48199;SDS011;33990;44.602;10.976;2023-05-07T11:51:20;4.90;;;3.85;;
48199;SDS011;33990;44.602;10.976;2023-05-07T11:53:48;4.75;;;3.75;;
48199;SDS011;33990;44.602;10.976;2023-05-07T11:56:17;6.43;;;4.10;;
48199;SDS011;33990;44.602;10.976;2023-05-07T11:58:45;5.13;;;3.63;;
48199;SDS011;33990;44.602;10.976;2023-05-07T12:01:14;4.63;;;3.70;;
48199;SDS011;33990;44.602;10.976;2023-05-07T12:03:42;5.13;;;4.43;;
48199;SDS011;33990;44.602;10.976;2023-05-07T12:06:14;5.57;;;4.18;;
48199;SDS011;33990;44.602;10.976;2023-05-07T12:08:43;5.53;;;4.03;;
48199;SDS011;33990;44.602;10.976;2023-05-07T12:11:23;7.25;;;4.72;;
48199;SDS011;33990;44.602;10.976;2023-05-07T12:13:53;5.97;;;4.22;;
48199;SDS011;33990;44.602;10.976;2023-05-07T12:16:25;8.15;;;3.72;;
48199;SDS011;33990;44.602;10.976;2023-05-07T12:18:53;7.55;;;3.53;;
48199;SDS011;33990;44.602;10.976;2023-05-07T12:21:22;5.15;;;3.92;;
48199;SDS011;33990;44.602;10.976;2023-05-07T12:23:50;8.23;;;4.13;;
48199;SDS011;33990;44.602;10.976;2023-05-07T12:26:18;6.53;;;3.58;;
48199;SDS011;33990;44.602;10.976;2023-05-07T12:28:49;5.82;;;4.28;;
48199;SDS011;33990;44.602;10.976;2023-05-07T12:31:16;4.82;;;3.90;;
48199;SDS011;33990;44.602;10.976;2023-05-07T12:33:44;5.60;;;3.55;;
48199;SDS011;33990;44.602;10.976;2023-05-07T12:36:12;6.53;;;3.65;;
48199;SDS011;33990;44.602;10.976;2023-05-07T12:38:40;3.88;;;3.17;;
48199;SDS011;33990;44.602;10.976;2023-05-07T12:41:08;6.95;;;3.33;;
48199;SDS011;33990;44.602;10.976;2023-05-07T12:43:37;4.75;;;3.70;;
48199;SDS011;33990;44.602;10.976;2023-05-07T12:46:05;3.80;;;3.38;;
48199;SDS011;33990;44.602;10.976;2023-05-07T12:48:35;4.70;;;3.20;;
48199;SDS011;33990;44.602;10.976;2023-05-07T12:51:04;6.55;;;3.50;;
48199;SDS011;33990;44.602;10.976;2023-05-07T12:53:34;4.85;;;3.63;;
48199;SDS011;33990;44.602;10.976;2023-05-07T12:56:06;4.35;;;3.35;;
48199;SDS011;33990;44.602;10.976;2023-05-07T12:58:34;4.85;;;3.63;;
48199;SDS011;33990;44.602;10.976;2023-05-07T13:01:06;4.40;;;3.58;;
48199;SDS011;33990;44.602;10.976;2023-05-07T13:03:37;6.00;;;3.50;;
48199;SDS011;33990;44.602;10.976;2023-05-07T13:06:08;6.78;;;3.20;;
48199;SDS011;33990;44.602;10.976;2023-05-07T13:08:37;5.87;;;3.03;;
48199;SDS011;33990;44.602;10.976;2023-05-07T13:11:12;7.38;;;3.30;;
48199;SDS011;33990;44.602;10.976;2023-05-07T13:13:40;4.25;;;3.08;;
48199;SDS011;33990;44.602;10.976;2023-05-07T13:16:09;5.20;;;3.47;;
48199;SDS011;33990;44.602;10.976;2023-05-07T13:18:38;4.10;;;2.83;;
48199;SDS011;33990;44.602;10.976;2023-05-07T13:21:07;4.15;;;3.00;;
48199;SDS011;33990;44.602;10.976;2023-05-07T13:23:34;4.95;;;3.15;;
48199;SDS011;33990;44.602;10.976;2023-05-07T13:26:02;5.38;;;3.85;;
48199;SDS011;33990;44.602;10.976;2023-05-07T13:28:40;4.72;;;3.40;;
48199;SDS011;33990;44.602;10.976;2023-05-07T13:31:09;6.07;;;3.45;;
48199;SDS011;33990;44.602;10.976;2023-05-07T13:33:36;6.18;;;3.40;;
48199;SDS011;33990;44.602;10.976;2023-05-07T13:36:03;7.03;;;3.45;;
48199;SDS011;33990;44.602;10.976;2023-05-07T13:38:32;5.47;;;3.10;;
48199;SDS011;33990;44.602;10.976;2023-05-07T13:40:59;3.55;;;3.10;;
48199;SDS011;33990;44.602;10.976;2023-05-07T13:43:26;6.40;;;3.40;;
48199;SDS011;33990;44.602;10.976;2023-05-07T13:45:54;5.25;;;3.10;;
48199;SDS011;33990;44.602;10.976;2023-05-07T13:48:21;6.13;;;3.80;;
48199;SDS011;33990;44.602;10.976;2023-05-07T13:50:49;5.50;;;3.38;;
48199;SDS011;33990;44.602;10.976;2023-05-07T13:53:17;6.40;;;3.10;;
48199;SDS011;33990;44.602;10.976;2023-05-07T13:55:45;6.07;;;3.10;;
48199;SDS011;33990;44.602;10.976;2023-05-07T13:58:13;3.45;;;2.88;;
48199;SDS011;33990;44.602;10.976;2023-05-07T14:00:40;5.03;;;3.00;;
48199;SDS011;33990;44.602;10.976;2023-05-07T14:03:08;4.00;;;2.97;;
48199;SDS011;33990;44.602;10.976;2023-05-07T14:05:35;4.53;;;3.35;;
48199;SDS011;33990;44.602;10.976;2023-05-07T14:08:02;4.40;;;3.35;;
48199;SDS011;33990;44.602;10.976;2023-05-07T14:10:31;5.65;;;3.03;;
48199;SDS011;33990;44.602;10.976;2023-05-07T14:13:01;3.53;;;2.80;;
48199;SDS011;33990;44.602;10.976;2023-05-07T14:15:29;3.72;;;3.33;;
48199;SDS011;33990;44.602;10.976;2023-05-07T14:17:56;4.82;;;3.22;;
48199;SDS011;33990;44.602;10.976;2023-05-07T14:20:26;4.63;;;3.05;;
48199;SDS011;33990;44.602;10.976;2023-05-07T14:22:53;3.85;;;3.22;;
48199;SDS011;33990;44.602;10.976;2023-05-07T14:25:23;5.05;;;2.80;;
48199;SDS011;33990;44.602;10.976;2023-05-07T14:27:51;4.18;;;3.25;;
48199;SDS011;33990;44.602;10.976;2023-05-07T14:30:18;4.47;;;2.95;;
48199;SDS011;33990;44.602;10.976;2023-05-07T14:32:46;4.85;;;2.63;;
48199;SDS011;33990;44.602;10.976;2023-05-07T14:35:13;3.75;;;2.85;;
48199;SDS011;33990;44.602;10.976;2023-05-07T14:37:41;3.70;;;2.80;;
48199;SDS011;33990;44.602;10.976;2023-05-07T14:40:09;4.18;;;3.22;;
48199;SDS011;33990;44.602;10.976;2023-05-07T14:42:36;7.15;;;2.88;;
48199;SDS011;33990;44.602;10.976;2023-05-07T14:45:04;3.80;;;2.88;;
48199;SDS011;33990;44.602;10.976;2023-05-07T14:47:31;3.92;;;3.20;;
48199;SDS011;33990;44.602;10.976;2023-05-07T14:49:59;3.88;;;3.30;;
48199;SDS011;33990;44.602;10.976;2023-05-07T14:52:28;3.63;;;3.10;;
48199;SDS011;33990;44.602;10.976;2023-05-07T14:54:55;5.05;;;3.08;;
48199;SDS011;33990;44.602;10.976;2023-05-07T14:57:22;3.78;;;3.03;;
48199;SDS011;33990;44.602;10.976;2023-05-07T14:59:49;4.15;;;2.97;;
48199;SDS011;33990;44.602;10.976;2023-05-07T15:02:17;3.78;;;2.97;;
48199;SDS011;33990;44.602;10.976;2023-05-07T15:04:47;3.97;;;2.85;;
48199;SDS011;33990;44.602;10.976;2023-05-07T15:07:15;3.45;;;2.97;;
48199;SDS011;33990;44.602;10.976;2023-05-07T15:09:43;5.32;;;3.22;;
48199;SDS011;33990;44.602;10.976;2023-05-07T15:12:11;3.72;;;3.17;;
48199;SDS011;33990;44.602;10.976;2023-05-07T15:14:38;3.75;;;3.15;;
48199;SDS011;33990;44.602;10.976;2023-05-07T15:17:06;3.45;;;2.88;;
48199;SDS011;33990;44.602;10.976;2023-05-07T15:19:34;4.57;;;2.88;;
48199;SDS011;33990;44.602;10.976;2023-05-07T15:22:02;3.67;;;3.10;;